KCGE

Cambridge-Dorchester Regional Airport

Cambridge, Maryland, USA
METAR KCGE 181945Z AUTO 32003KT 10SM CLR 12/03 A3001 RMK A01
Observed Flight Rules
Dec-18 @ 19:45 UTC (34 minutes ago) Visual Flight Rules
Wind Visibility Clouds
320° at 3 knots 10 miles
  • Clear skies
Temperatures Readings
Current 12°C / 54°F
Dewpoint 3°C / 37°F
Humidity 54%
Altimeter 30.01" Hg
Pressure 1016 hPa
Elevation 6
METAR KCGE 181945Z AUTO 32003KT 10SM CLR 12/03 A3001 RMK A01
Observed Flight Rules
Dec-18 @ 19:45 UTC
(34 minutes ago)
VFR
Wind Visibility
320° at 3 knots 10 miles
Clouds
  • Clear skies
Temperature Dewpoint
12°C / 54°F 3°C / 37°F
Humidity Altimeter Pressure
54% 30.01" Hg 1016 hPa